Time;durP1;ratioP1;P1;durP2;ratioP2;P2;SDS_P1;SDS_P2;PMS_P1;PMS_P2;Temp;Humidity;BMP_temperature;BMP_pressure;BME280_temperature;BME280_humidity;BME280_pressure;Samples;Min_cycle;Max_cycle;Signal;HPM_P1;HPM_P2
2023/10/05 00:01:44;;;;;;;10.05;2.60;;;13.10;99.90;;;;;;5023481;28;20389;-78
2023/10/05 00:04:15;;;;;;;11.02;2.63;;;13.20;99.90;;;;;;5025019;28;20068;-80
2023/10/05 00:06:42;;;;;;;9.93;2.20;;;13.10;99.90;;;;;;5026661;28;20052;-79
2023/10/05 00:09:13;;;;;;;12.07;2.88;;;13.20;99.90;;;;;;5032339;28;20468;-79
2023/10/05 00:11:39;;;;;;;9.30;2.55;;;13.20;99.90;;;;;;5034530;28;20400;-79
2023/10/05 00:14:07;;;;;;;14.57;2.83;;;13.20;99.90;;;;;;5026690;28;20041;-79
2023/10/05 00:16:36;;;;;;;10.25;2.33;;;13.20;99.90;;;;;;5034563;28;20153;-78
2023/10/05 00:19:23;;;;;;;10.50;2.30;;;13.20;99.90;;;;;;5026341;28;20044;-79
2023/10/05 00:24:18;;;;;;;10.20;2.15;;;13.20;99.90;;;;;;5026087;28;20060;-79
2023/10/05 00:26:49;;;;;;;13.98;2.28;;;13.20;99.90;;;;;;5030836;28;20053;-77
2023/10/05 00:29:24;;;;;;;10.70;2.75;;;13.20;99.90;;;;;;5010486;28;20049;-79
2023/10/05 00:31:50;;;;;;;11.00;2.22;;;13.20;99.90;;;;;;5026630;28;20125;-77
2023/10/05 00:34:22;;;;;;;10.32;2.53;;;13.20;99.90;;;;;;5044209;28;20496;-78
2023/10/05 00:36:53;;;;;;;10.48;2.58;;;13.20;99.90;;;;;;5041060;28;20047;-79
2023/10/05 00:39:21;;;;;;;10.65;2.10;;;13.20;99.90;;;;;;5022751;28;20161;-79
2023/10/05 00:44:26;;;;;;;10.85;2.28;;;13.70;99.90;;;;;;5025809;28;20661;-79
2023/10/05 00:46:52;;;;;;;12.05;2.42;;;13.10;99.90;;;;;;5024166;28;20044;-77
2023/10/05 00:49:23;;;;;;;10.52;2.85;;;13.20;99.90;;;;;;5022943;28;20544;-78
2023/10/05 00:52:12;;;;;;;13.57;2.38;;;13.10;99.90;;;;;;5023343;28;20493;-78
2023/10/05 00:54:40;;;;;;;7.57;2.38;;;13.10;99.90;;;;;;5043595;28;20131;-78
2023/10/05 00:57:13;;;;;;;15.05;2.65;;;13.10;99.90;;;;;;5023140;28;20084;-79
2023/10/05 00:59:40;;;;;;;10.73;3.17;;;13.10;99.90;;;;;;5022239;28;20136;-79
2023/10/05 01:02:14;;;;;;;6.88;2.08;;;13.10;99.90;;;;;;5041985;28;20088;-79
2023/10/05 01:04:56;;;;;;;13.45;2.55;;;13.10;99.90;;;;;;5025419;28;20574;-79
2023/10/05 01:09:56;;;;;;;10.05;2.40;;;13.00;99.90;;;;;;5022630;28;20052;-78
2023/10/05 01:15:01;;;;;;;9.88;2.63;;;13.10;99.90;;;;;;5025440;28;20044;-79
2023/10/05 01:17:27;;;;;;;10.18;2.80;;;13.10;99.90;;;;;;5022760;28;20053;-78
2023/10/05 01:19:56;;;;;;;9.05;2.35;;;13.10;99.90;;;;;;5022298;28;20045;-78
2023/10/05 01:22:24;;;;;;;8.98;2.28;;;13.10;99.90;;;;;;5041569;28;20049;-79
2023/10/05 01:24:50;;;;;;;10.52;2.88;;;13.00;99.90;;;;;;5025782;28;20419;-78
2023/10/05 01:27:16;;;;;;;13.85;2.33;;;13.10;99.90;;;;;;5043304;28;20049;-79
2023/10/05 01:29:43;;;;;;;10.57;2.92;;;13.00;99.90;;;;;;5022097;28;20041;-79
2023/10/05 01:32:10;;;;;;;14.43;2.42;;;13.00;99.90;;;;;;5022958;28;20053;-78
2023/10/05 01:34:37;;;;;;;11.48;2.70;;;13.00;99.90;;;;;;5041355;28;20054;-78
2023/10/05 01:37:05;;;;;;;11.45;2.65;;;13.00;99.90;;;;;;5025185;28;20053;-78
2023/10/05 01:39:35;;;;;;;9.38;2.40;;;13.10;99.90;;;;;;5024381;28;20042;-76
2023/10/05 01:42:05;;;;;;;10.45;2.40;;;13.00;99.90;;;;;;5021897;28;20055;-77
2023/10/05 01:44:31;;;;;;;16.77;2.45;;;13.00;99.90;;;;;;5021393;28;20096;-79
2023/10/05 01:46:58;;;;;;;12.63;2.55;;;13.00;99.90;;;;;;5007468;28;20096;-76
2023/10/05 01:49:25;;;;;;;8.55;2.22;;;13.00;99.90;;;;;;5042655;28;20052;-78
2023/10/05 01:51:52;;;;;;;8.25;2.65;;;13.50;99.90;;;;;;5023239;28;20404;-78
2023/10/05 01:54:18;;;;;;;9.40;2.75;;;13.00;99.90;;;;;;5020890;28;20144;-77
2023/10/05 01:56:44;;;;;;;12.05;2.75;;;13.00;99.90;;;;;;5021673;28;20125;-79
2023/10/05 01:59:12;;;;;;;14.20;3.13;;;13.00;99.90;;;;;;5023652;28;20060;-78
2023/10/05 02:01:40;;;;;;;12.25;2.58;;;13.00;99.90;;;;;;5026800;28;20045;-79
2023/10/05 02:04:07;;;;;;;10.38;2.58;;;13.10;99.90;;;;;;5040712;28;20049;-78
2023/10/05 02:06:40;;;;;;;16.25;3.10;;;13.00;99.90;;;;;;5023987;28;20051;-79
2023/10/05 02:09:06;;;;;;;10.30;2.92;;;13.00;99.90;;;;;;5024562;28;20484;-78
2023/10/05 02:11:33;;;;;;;13.45;2.40;;;13.00;99.90;;;;;;5042022;28;20502;-78
2023/10/05 02:14:06;;;;;;;11.85;2.45;;;13.00;99.90;;;;;;5042005;28;20044;-78
2023/10/05 02:16:32;;;;;;;12.30;2.60;;;13.10;99.90;;;;;;5031647;28;20045;-79
2023/10/05 02:19:04;;;;;;;14.57;2.65;;;13.00;99.90;;;;;;5012400;28;20180;-79
2023/10/05 02:21:32;;;;;;;8.52;2.17;;;13.00;99.90;;;;;;5028949;28;20048;-79
2023/10/05 02:24:02;;;;;;;12.18;2.67;;;13.10;99.90;;;;;;5038779;28;20480;-78
2023/10/05 02:26:33;;;;;;;16.50;3.00;;;12.90;99.90;;;;;;5022384;28;20575;-79
2023/10/05 02:29:13;;;;;;;13.60;2.60;;;13.10;99.90;;;;;;5041481;28;20045;-79
2023/10/05 02:31:50;;;;;;;14.98;3.30;;;13.10;99.90;;;;;;5039152;28;20547;-77
2023/10/05 02:34:20;;;;;;;12.45;2.45;;;13.10;99.90;;;;;;5004490;28;20119;-77
2023/10/05 02:36:45;;;;;;;16.52;2.65;;;13.20;99.90;;;;;;5022729;28;20448;-78
2023/10/05 02:39:11;;;;;;;15.95;2.90;;;13.40;99.90;;;;;;5023328;28;20114;-79
2023/10/05 02:41:39;;;;;;;18.58;2.72;;;13.20;99.90;;;;;;5023095;28;20060;-78
2023/10/05 02:46:55;;;;;;;16.05;2.60;;;13.40;99.90;;;;;;4982447;28;20054;-77
2023/10/05 02:49:24;;;;;;;15.30;2.15;;;13.30;99.90;;;;;;4999280;28;20402;-78
2023/10/05 02:51:52;;;;;;;14.27;2.22;;;13.40;99.90;;;;;;4998288;28;20057;-77
2023/10/05 02:54:22;;;;;;;24.35;3.35;;;13.40;99.90;;;;;;4979958;28;20109;-79
2023/10/05 02:56:48;;;;;;;13.27;2.55;;;13.40;99.90;;;;;;4996698;28;20057;-78
2023/10/05 02:59:15;;;;;;;17.08;2.33;;;13.50;99.90;;;;;;4999727;28;20061;-78
2023/10/05 03:01:43;;;;;;;15.57;2.33;;;13.50;99.90;;;;;;4983088;28;20060;-80
2023/10/05 03:06:42;;;;;;;14.35;2.53;;;13.60;99.90;;;;;;4980056;28;20057;-79
2023/10/05 03:09:08;;;;;;;17.25;2.47;;;13.60;99.90;;;;;;5004461;28;20112;-79
2023/10/05 03:11:36;;;;;;;12.48;2.63;;;13.60;99.90;;;;;;4979842;28;20875;-80
2023/10/05 03:14:02;;;;;;;9.85;2.05;;;13.60;99.90;;;;;;4979910;28;20038;-81
2023/10/05 03:16:28;;;;;;;18.00;2.97;;;13.70;99.90;;;;;;4998735;28;20050;-79
2023/10/05 03:18:54;;;;;;;13.60;2.72;;;13.60;99.90;;;;;;4999127;28;20085;-79
2023/10/05 03:21:21;;;;;;;14.00;2.72;;;13.70;99.90;;;;;;4998922;28;20122;-80
2023/10/05 03:23:47;;;;;;;14.00;3.50;;;13.70;99.90;;;;;;5000520;28;20053;-79
2023/10/05 03:26:16;;;;;;;16.60;2.85;;;13.70;99.90;;;;;;5031940;28;20412;-78
2023/10/05 03:28:43;;;;;;;13.95;2.15;;;13.70;99.90;;;;;;5019162;28;20155;-80
2023/10/05 03:31:24;;;;;;;11.90;2.47;;;13.70;99.90;;;;;;5046811;28;20048;-80
2023/10/05 03:33:52;;;;;;;15.05;2.55;;;13.70;99.90;;;;;;5018921;28;20063;-80
2023/10/05 03:36:17;;;;;;;17.17;2.67;;;13.70;99.90;;;;;;5044693;28;20516;-79
2023/10/05 03:38:43;;;;;;;13.70;2.70;;;13.70;99.90;;;;;;5050087;28;20080;-79
2023/10/05 03:41:15;;;;;;;15.63;2.78;;;13.80;99.90;;;;;;5042114;28;20110;-80
2023/10/05 03:43:43;;;;;;;16.02;2.70;;;13.80;99.90;;;;;;5024856;28;20516;-80
2023/10/05 03:46:09;;;;;;;16.30;2.85;;;13.80;99.90;;;;;;5044626;28;20563;-79
2023/10/05 03:48:38;;;;;;;18.20;2.67;;;13.80;99.90;;;;;;5044883;28;20097;-80
2023/10/05 03:51:15;;;;;;;14.10;2.47;;;13.90;99.90;;;;;;5026993;28;20062;-80
2023/10/05 03:53:51;;;;;;;19.52;2.92;;;13.90;99.90;;;;;;5045455;28;20059;-79
2023/10/05 03:56:21;;;;;;;9.35;2.42;;;13.90;99.90;;;;;;5028045;28;20053;-79
2023/10/05 03:58:48;;;;;;;14.55;2.45;;;13.90;99.90;;;;;;5027252;28;20072;-79
2023/10/05 04:01:14;;;;;;;12.02;2.95;;;13.90;99.90;;;;;;5031591;28;20057;-79
2023/10/05 04:03:46;;;;;;;19.10;2.88;;;13.90;99.90;;;;;;5048176;28;20029;-79
2023/10/05 04:06:25;;;;;;;18.75;3.40;;;13.90;99.90;;;;;;5041894;28;20084;-79
2023/10/05 04:08:56;;;;;;;14.10;2.47;;;13.90;99.90;;;;;;5023311;28;20045;-81
2023/10/05 04:11:21;;;;;;;17.55;2.78;;;14.00;99.90;;;;;;5026181;28;20048;-81
2023/10/05 04:13:49;;;;;;;26.83;2.80;;;14.00;99.90;;;;;;5026173;28;20041;-79
2023/10/05 04:16:22;;;;;;;15.90;3.10;;;13.90;99.90;;;;;;5024675;28;20106;-79
2023/10/05 04:18:51;;;;;;;22.38;3.08;;;14.00;99.90;;;;;;5023214;28;20116;-79
2023/10/05 04:21:21;;;;;;;17.25;2.92;;;13.90;99.90;;;;;;5024308;28;20080;-78
2023/10/05 04:23:49;;;;;;;18.35;3.65;;;13.90;99.90;;;;;;5026163;28;20037;-79
2023/10/05 04:26:22;;;;;;;19.30;3.00;;;14.00;99.90;;;;;;5043937;28;20049;-78
2023/10/05 04:28:57;;;;;;;17.63;3.58;;;13.90;99.90;;;;;;5040552;28;20094;-80
2023/10/05 04:31:25;;;;;;;13.45;2.63;;;13.90;99.90;;;;;;5041005;28;20111;-78
2023/10/05 04:33:51;;;;;;;11.63;2.38;;;13.80;99.90;;;;;;5043481;28;20260;-79
2023/10/05 04:36:20;;;;;;;11.75;2.53;;;13.80;99.90;;;;;;5025863;28;20506;-79
2023/10/05 04:38:46;;;;;;;13.57;2.72;;;13.80;99.90;;;;;;5006397;28;20052;-79
2023/10/05 04:41:19;;;;;;;18.70;3.50;;;13.80;99.90;;;;;;5022963;28;20496;-79
2023/10/05 04:43:47;;;;;;;22.33;4.45;;;13.80;99.90;;;;;;5021232;28;20053;-79
2023/10/05 04:46:17;;;;;;;18.77;2.75;;;13.90;99.90;;;;;;5025865;28;20049;-81
2023/10/05 04:48:55;;;;;;;10.60;2.58;;;13.80;99.90;;;;;;5043376;28;20064;-79
2023/10/05 04:51:29;;;;;;;17.95;3.47;;;13.90;99.90;;;;;;5025867;28;20052;-79
2023/10/05 04:53:58;;;;;;;15.13;3.03;;;13.80;99.90;;;;;;5041857;28;20053;-80
2023/10/05 05:07:02;;;;;;;16.52;2.58;;;13.90;99.90;;;;;;5029973;28;20053;-78
2023/10/05 05:09:34;;;;;;;17.70;2.63;;;13.90;99.90;;;;;;5023916;28;20044;-80
2023/10/05 05:12:04;;;;;;;17.05;2.88;;;13.80;99.90;;;;;;5025974;28;20057;-79
2023/10/05 05:14:34;;;;;;;18.30;3.10;;;13.90;99.90;;;;;;5026196;28;20493;-78
2023/10/05 05:17:04;;;;;;;14.93;2.72;;;13.90;99.90;;;;;;5024603;28;20041;-79
2023/10/05 05:19:30;;;;;;;14.85;3.08;;;13.80;99.90;;;;;;5040589;28;20053;-79
2023/10/05 05:22:00;;;;;;;15.20;3.15;;;13.80;99.90;;;;;;5043336;28;20041;-80
2023/10/05 05:24:29;;;;;;;16.20;2.88;;;13.80;99.90;;;;;;5043868;28;20091;-79
2023/10/05 05:27:00;;;;;;;14.45;2.85;;;13.70;99.90;;;;;;5043438;28;20467;-80
2023/10/05 05:29:35;;;;;;;15.27;3.30;;;13.80;99.90;;;;;;5022387;28;20055;-78
2023/10/05 05:32:10;;;;;;;15.63;2.83;;;13.70;99.90;;;;;;5040023;28;20034;-78
2023/10/05 05:34:36;;;;;;;14.43;2.70;;;13.70;99.90;;;;;;5043392;28;20040;-78
2023/10/05 05:37:02;;;;;;;21.42;2.42;;;13.70;99.90;;;;;;5044861;28;20029;-78
2023/10/05 05:39:31;;;;;;;20.73;3.80;;;13.90;99.90;;;;;;5023437;28;20053;-78
2023/10/05 05:41:59;;;;;;;13.15;3.00;;;13.70;99.90;;;;;;5042877;28;20119;-78
2023/10/05 05:44:26;;;;;;;17.38;2.65;;;13.60;99.90;;;;;;5041922;28;20053;-79
2023/10/05 05:46:58;;;;;;;17.38;3.03;;;13.60;99.90;;;;;;5039722;28;20464;-79
2023/10/05 05:49:24;;;;;;;19.65;3.53;;;13.60;99.90;;;;;;5039305;28;20497;-77
2023/10/05 05:51:50;;;;;;;15.13;2.83;;;13.70;99.90;;;;;;5024419;28;20037;-78
2023/10/05 05:54:18;;;;;;;13.63;2.95;;;13.60;99.90;;;;;;5024369;28;20098;-79
2023/10/05 05:56:44;;;;;;;14.63;2.42;;;13.70;99.90;;;;;;5040885;28;20052;-79
2023/10/05 05:59:10;;;;;;;16.67;2.97;;;13.70;99.90;;;;;;5021640;28;20335;-79
2023/10/05 06:01:36;;;;;;;14.25;2.90;;;13.70;99.90;;;;;;5021231;28;20049;-80
2023/10/05 06:04:03;;;;;;;20.35;3.10;;;13.70;99.90;;;;;;5032104;28;20052;-78
2023/10/05 06:06:29;;;;;;;16.08;3.35;;;13.80;99.90;;;;;;5026292;28;20061;-79
2023/10/05 06:08:56;;;;;;;16.17;3.40;;;13.80;99.90;;;;;;5006144;28;20053;-78
2023/10/05 06:11:22;;;;;;;11.98;2.80;;;13.80;99.90;;;;;;5024131;28;20080;-78
2023/10/05 06:13:49;;;;;;;19.20;3.90;;;13.80;99.90;;;;;;5023978;28;20052;-80
2023/10/05 06:16:15;;;;;;;21.58;3.53;;;13.90;99.90;;;;;;5047253;28;20141;-79
2023/10/05 06:18:41;;;;;;;15.30;2.85;;;13.90;99.90;;;;;;5038888;28;20128;-78
2023/10/05 06:21:07;;;;;;;20.92;3.10;;;13.50;99.90;;;;;;5021719;28;20045;-78
2023/10/05 06:23:34;;;;;;;15.07;3.10;;;14.00;99.90;;;;;;5024364;28;20080;-78
2023/10/05 06:26:00;;;;;;;18.15;3.30;;;14.10;99.90;;;;;;5023988;28;20060;-78
2023/10/05 06:28:27;;;;;;;16.77;3.65;;;14.10;99.90;;;;;;5038960;28;20077;-79
2023/10/05 06:30:56;;;;;;;21.27;3.25;;;14.20;99.90;;;;;;5020660;28;20049;-77
2023/10/05 06:33:22;;;;;;;15.07;3.33;;;14.10;99.90;;;;;;5040359;28;20053;-78
2023/10/05 06:35:48;;;;;;;21.38;3.80;;;14.20;99.90;;;;;;5041488;28;20037;-79
2023/10/05 06:38:16;;;;;;;16.70;3.08;;;14.20;99.90;;;;;;5023560;28;20334;-79
2023/10/05 06:40:42;;;;;;;17.83;3.45;;;14.20;99.90;;;;;;5046663;28;20523;-78
2023/10/05 06:43:08;;;;;;;24.90;3.40;;;14.30;99.90;;;;;;5020713;28;20080;-78
2023/10/05 06:45:36;;;;;;;23.13;4.03;;;14.30;99.90;;;;;;5039812;28;20505;-79
2023/10/05 06:48:06;;;;;;;17.30;2.95;;;14.30;99.90;;;;;;5041705;28;20153;-78
2023/10/05 06:50:32;;;;;;;16.55;2.88;;;14.40;99.90;;;;;;5022656;28;20504;-78
2023/10/05 06:52:58;;;;;;;18.90;3.50;;;14.40;99.90;;;;;;5020134;28;20068;-78
2023/10/05 06:55:24;;;;;;;18.75;3.20;;;14.50;99.90;;;;;;5020252;28;20054;-79
2023/10/05 06:57:51;;;;;;;23.90;4.07;;;14.50;99.90;;;;;;5022211;28;20080;-80
2023/10/05 07:00:21;;;;;;;19.63;3.58;;;14.50;99.90;;;;;;5023368;28;20056;-79
2023/10/05 07:02:49;;;;;;;21.95;4.03;;;14.50;99.90;;;;;;5021822;28;20115;-78
2023/10/05 07:05:15;;;;;;;14.88;3.83;;;14.60;99.90;;;;;;5020378;28;20056;-79
2023/10/05 07:07:41;;;;;;;20.77;3.80;;;14.60;99.90;;;;;;5020206;28;20053;-78
2023/10/05 07:10:08;;;;;;;19.90;3.40;;;14.70;99.90;;;;;;5023077;28;20044;-78
2023/10/05 07:12:35;;;;;;;17.73;3.45;;;14.70;99.90;;;;;;5041264;28;20340;-78
2023/10/05 07:15:02;;;;;;;14.13;2.90;;;14.70;99.90;;;;;;5021474;28;20571;-79
2023/10/05 07:17:29;;;;;;;19.10;3.13;;;14.80;99.90;;;;;;5020118;28;20072;-79
2023/10/05 07:19:54;;;;;;;19.98;3.50;;;14.80;99.90;;;;;;5037891;28;20519;-80
2023/10/05 07:22:23;;;;;;;15.02;3.20;;;14.80;99.90;;;;;;5022694;28;20033;-79
2023/10/05 07:24:49;;;;;;;16.92;3.80;;;14.90;99.90;;;;;;5022981;28;20185;-79
2023/10/05 07:27:16;;;;;;;13.50;3.08;;;15.00;99.90;;;;;;5039499;28;20049;-78
2023/10/05 07:29:45;;;;;;;24.42;3.38;;;15.00;99.90;;;;;;5020110;28;20040;-78
2023/10/05 07:32:14;;;;;;;19.23;3.13;;;15.00;99.90;;;;;;5020360;28;20120;-79
2023/10/05 07:34:45;;;;;;;16.63;2.80;;;15.00;99.90;;;;;;5041160;28;20095;-80
2023/10/05 07:37:11;;;;;;;20.80;3.58;;;15.00;99.90;;;;;;5023288;28;20049;-81
2023/10/05 07:39:43;;;;;;;14.52;3.40;;;15.00;99.90;;;;;;5038092;28;20061;-79
2023/10/05 07:42:09;;;;;;;18.85;3.63;;;15.00;99.90;;;;;;5037663;28;20121;-77
2023/10/05 07:44:39;;;;;;;22.23;3.53;;;15.00;99.90;;;;;;5005130;28;20049;-78
2023/10/05 07:47:06;;;;;;;21.30;3.97;;;15.00;99.90;;;;;;5023015;28;20454;-77
2023/10/05 07:49:35;;;;;;;22.42;4.10;;;15.00;99.90;;;;;;5005912;28;20143;-76
2023/10/05 07:52:11;;;;;;;17.92;3.63;;;14.90;99.90;;;;;;5019811;28;20041;-77
2023/10/05 07:54:40;;;;;;;21.38;4.00;;;14.90;99.90;;;;;;5020694;28;20068;-76
2023/10/05 07:57:10;;;;;;;22.40;4.78;;;14.90;99.90;;;;;;5023168;28;20141;-76
2023/10/05 07:59:43;;;;;;;20.98;3.42;;;14.90;99.90;;;;;;5022931;28;20051;-76
2023/10/05 08:02:11;;;;;;;22.23;3.97;;;14.90;99.90;;;;;;5038152;28;20171;-78
2023/10/05 08:04:38;;;;;;;21.33;3.72;;;14.90;99.90;;;;;;5037724;28;20085;-76
2023/10/05 08:07:04;;;;;;;14.52;3.60;;;14.90;99.90;;;;;;5040096;28;20159;-76
2023/10/05 08:09:30;;;;;;;15.63;3.38;;;14.90;99.90;;;;;;5040774;28;20589;-77
2023/10/05 08:11:59;;;;;;;15.73;3.45;;;14.90;99.90;;;;;;5039821;28;20397;-77
2023/10/05 08:14:24;;;;;;;14.75;3.60;;;15.00;99.90;;;;;;5040199;28;20151;-77
2023/10/05 08:16:51;;;;;;;17.30;3.08;;;15.00;99.90;;;;;;5023407;28;20120;-76
2023/10/05 08:19:19;;;;;;;17.80;3.40;;;15.00;99.90;;;;;;5026164;28;20530;-76
2023/10/05 08:21:45;;;;;;;15.25;3.65;;;15.00;99.90;;;;;;5044248;28;20382;-77
2023/10/05 08:24:12;;;;;;;20.23;3.30;;;15.00;99.90;;;;;;5024966;28;20064;-76
2023/10/05 08:26:39;;;;;;;21.67;4.38;;;15.00;99.90;;;;;;5041109;28;20484;-77
2023/10/05 08:29:06;;;;;;;18.77;3.65;;;15.10;99.90;;;;;;5023305;28;20045;-78
2023/10/05 08:31:33;;;;;;;15.13;3.53;;;15.10;99.90;;;;;;5044268;28;20041;-76
2023/10/05 08:34:03;;;;;;;18.42;3.67;;;15.10;99.90;;;;;;5026040;28;20036;-76
2023/10/05 08:36:29;;;;;;;17.15;4.15;;;15.10;99.90;;;;;;5023613;28;20106;-76
2023/10/05 08:38:56;;;;;;;19.67;3.58;;;15.10;99.90;;;;;;5022683;28;20437;-76
2023/10/05 08:41:31;;;;;;;20.10;4.22;;;15.30;99.90;;;;;;5023275;28;20049;-77
2023/10/05 08:44:10;;;;;;;17.95;3.50;;;15.30;99.90;;;;;;5025387;28;20560;-78
2023/10/05 08:46:42;;;;;;;20.50;3.60;;;15.30;99.90;;;;;;5023694;28;20136;-78
2023/10/05 08:49:12;;;;;;;20.92;3.90;;;15.30;99.90;;;;;;5022557;28;20156;-78
2023/10/05 08:51:39;;;;;;;17.85;3.25;;;15.40;99.90;;;;;;5042044;28;20045;-77
2023/10/05 08:54:11;;;;;;;19.65;3.80;;;15.40;99.90;;;;;;5043482;28;20048;-77
2023/10/05 08:56:45;;;;;;;21.85;3.40;;;15.50;99.90;;;;;;5043193;28;20094;-77
2023/10/05 08:59:14;;;;;;;15.20;3.83;;;15.50;99.90;;;;;;5040661;28;20053;-78
2023/10/05 09:01:45;;;;;;;18.10;3.88;;;15.60;99.90;;;;;;5023397;28;20053;-75
2023/10/05 09:04:23;;;;;;;17.27;3.25;;;15.70;99.90;;;;;;5043534;28;20511;-76
2023/10/05 09:06:55;;;;;;;20.65;4.30;;;15.70;99.90;;;;;;5042276;28;20506;-82
2023/10/05 09:09:38;;;;;;;15.43;3.40;;;15.70;99.90;;;;;;5040084;28;20104;-78
2023/10/05 09:12:42;;;;;;;17.08;5.05;;;15.70;99.90;;;;;;5042606;28;20041;-77
2023/10/05 09:15:18;;;;;;;21.33;3.80;;;15.70;99.90;;;;;;5023198;28;20049;-77
2023/10/05 09:18:17;;;;;;;16.23;3.70;;;15.70;99.90;;;;;;5022350;28;20049;-75
2023/10/05 09:20:46;;;;;;;16.20;3.75;;;15.60;99.90;;;;;;5046859;28;20119;-76
2023/10/05 09:23:20;;;;;;;16.40;3.85;;;15.70;99.90;;;;;;5023594;28;20483;-77
2023/10/05 09:25:46;;;;;;;14.80;3.50;;;15.70;99.90;;;;;;5039971;28;20125;-77
2023/10/05 09:28:28;;;;;;;11.48;3.15;;;15.80;99.90;;;;;;5041802;28;20066;-77
2023/10/05 09:30:59;;;;;;;16.10;3.15;;;15.90;99.90;;;;;;5042035;28;20051;-77
2023/10/05 09:33:27;;;;;;;17.30;3.50;;;16.00;99.90;;;;;;5023068;28;20102;-75
2023/10/05 09:36:06;;;;;;;19.40;4.07;;;16.00;99.90;;;;;;5022300;28;20099;-77
2023/10/05 09:38:38;;;;;;;15.25;3.70;;;16.00;99.90;;;;;;5042361;28;20049;-77
2023/10/05 09:41:06;;;;;;;17.77;4.00;;;16.00;99.90;;;;;;5025012;28;20049;-77
2023/10/05 09:43:38;;;;;;;14.75;3.22;;;16.10;99.90;;;;;;5022867;28;20048;-78
2023/10/05 09:46:09;;;;;;;11.15;3.17;;;16.10;99.90;;;;;;5017858;28;20639;-77
2023/10/05 09:48:39;;;;;;;15.43;3.60;;;16.10;99.90;;;;;;5019806;28;20062;-76
2023/10/05 09:51:08;;;;;;;12.82;3.88;;;16.20;99.90;;;;;;5022671;28;20041;-77
2023/10/05 09:53:35;;;;;;;10.23;2.88;;;16.20;99.90;;;;;;5020627;28;20108;-77
2023/10/05 09:56:01;;;;;;;14.20;2.95;;;16.20;99.90;;;;;;5018391;28;20180;-76
2023/10/05 09:58:29;;;;;;;13.45;2.75;;;16.30;99.90;;;;;;5019660;28;20041;-81
2023/10/05 10:01:10;;;;;;;12.60;2.78;;;16.20;99.90;;;;;;5021995;28;20489;-76
2023/10/05 10:03:37;;;;;;;14.38;3.25;;;16.20;99.90;;;;;;5021266;28;20045;-77
2023/10/05 10:09:32;;;;;;;13.95;2.85;;;15.60;99.90;;;;;;5024196;28;20075;-77
2023/10/05 10:12:00;;;;;;;15.07;4.28;;;16.20;99.90;;;;;;5020983;28;20049;-78
2023/10/05 10:14:29;;;;;;;14.45;3.25;;;16.10;99.90;;;;;;5019154;28;20550;-77
2023/10/05 10:17:00;;;;;;;14.75;3.00;;;16.10;99.90;;;;;;5019577;28;20501;-77
2023/10/05 10:19:26;;;;;;;17.05;3.63;;;16.00;99.90;;;;;;5022090;28;20048;-75
2023/10/05 10:22:07;;;;;;;14.68;2.92;;;16.00;99.90;;;;;;5022034;28;20041;-76
2023/10/05 10:24:34;;;;;;;13.10;3.15;;;16.00;99.90;;;;;;5023597;28;20393;-77
2023/10/05 10:27:08;;;;;;;14.98;3.38;;;16.00;99.90;;;;;;5022836;28;20057;-76
2023/10/05 10:29:42;;;;;;;14.93;3.63;;;16.10;99.90;;;;;;5029314;28;20041;-76
2023/10/05 10:32:34;;;;;;;16.27;3.75;;;16.10;99.90;;;;;;5020937;28;20095;-75
2023/10/05 10:35:12;;;;;;;16.58;4.03;;;16.40;99.90;;;;;;5018743;28;20818;-75
2023/10/05 10:37:39;;;;;;;13.98;3.83;;;16.50;99.90;;;;;;5029566;28;20045;-77
2023/10/05 10:40:30;;;;;;;11.35;3.38;;;16.50;99.90;;;;;;5021711;28;20073;-75
2023/10/05 10:45:42;;;;;;;10.55;3.17;;;16.30;99.90;;;;;;5018588;28;20065;-75
2023/10/05 10:48:12;;;;;;;12.38;2.95;;;16.40;99.90;;;;;;5021771;28;20049;-75
2023/10/05 10:50:39;;;;;;;15.48;2.88;;;16.40;99.90;;;;;;5018709;28;20056;-75
2023/10/05 10:53:16;;;;;;;15.38;3.40;;;16.50;99.90;;;;;;5018764;28;20073;-77
2023/10/05 10:55:48;;;;;;;11.77;2.70;;;16.70;99.90;;;;;;5020008;28;20046;-76
2023/10/05 10:58:16;;;;;;;11.10;2.63;;;16.70;99.90;;;;;;5017164;28;20508;-77
2023/10/05 11:00:56;;;;;;;12.57;2.78;;;16.90;99.90;;;;;;5025580;28;20558;-77
2023/10/05 11:03:27;;;;;;;13.93;2.75;;;17.00;99.90;;;;;;5016940;28;20049;-77
2023/10/05 11:05:57;;;;;;;9.63;2.97;;;17.00;99.90;;;;;;5018439;28;20046;-76
2023/10/05 11:08:23;;;;;;;19.88;3.10;;;17.20;99.90;;;;;;5015009;28;20058;-77
2023/10/05 11:10:59;;;;;;;11.57;2.63;;;17.40;99.90;;;;;;5017423;28;20046;-78
2023/10/05 11:13:25;;;;;;;12.27;2.70;;;17.70;99.90;;;;;;5021597;28;20412;-79
2023/10/05 11:15:59;;;;;;;13.70;3.05;;;17.90;99.90;;;;;;5019770;28;20049;-78
2023/10/05 11:18:39;;;;;;;19.60;3.67;;;18.00;99.90;;;;;;5018254;28;20053;-79
2023/10/05 11:21:19;;;;;;;14.23;2.92;;;18.00;99.90;;;;;;5019702;28;20453;-77
2023/10/05 11:23:55;;;;;;;11.90;2.17;;;18.00;99.90;;;;;;5003520;28;20049;-79
2023/10/05 11:26:33;;;;;;;11.43;2.90;;;18.00;99.90;;;;;;5016802;28;20141;-78
2023/10/05 11:29:00;;;;;;;12.20;3.03;;;18.10;99.90;;;;;;5016423;28;20049;-78
2023/10/05 11:31:34;;;;;;;12.85;2.92;;;18.30;99.90;;;;;;5019189;28;20139;-78
2023/10/05 11:34:11;;;;;;;12.48;2.65;;;18.60;99.90;;;;;;5019871;28;20054;-79
2023/10/05 11:36:42;;;;;;;11.38;2.63;;;18.90;99.90;;;;;;5028334;28;20059;-79
2023/10/05 11:39:26;;;;;;;9.93;2.30;;;19.10;99.90;;;;;;5019687;28;20095;-78
2023/10/05 11:41:57;;;;;;;16.42;2.83;;;19.20;99.90;;;;;;5028040;28;20057;-80
2023/10/05 11:44:24;;;;;;;13.80;2.00;;;19.10;99.90;;;;;;5021448;28;20528;-78
2023/10/05 11:46:53;;;;;;;11.52;3.08;;;18.90;99.90;;;;;;5037699;28;20045;-80
2023/10/05 11:49:20;;;;;;;9.27;2.25;;;18.80;99.90;;;;;;5023816;28;20045;-80
2023/10/05 11:51:59;;;;;;;8.77;2.75;;;18.60;99.90;;;;;;5026519;28;20053;-80
2023/10/05 11:54:25;;;;;;;10.40;2.03;;;18.50;99.90;;;;;;5044595;28;20051;-79
2023/10/05 11:56:53;;;;;;;8.93;2.10;;;18.30;99.90;;;;;;5007408;28;20103;-79
2023/10/05 11:59:29;;;;;;;11.57;2.10;;;17.80;99.90;;;;;;5023292;28;20052;-79
2023/10/05 12:01:55;;;;;;;12.50;2.40;;;17.90;99.90;;;;;;5044144;28;20053;-79
2023/10/05 12:04:23;;;;;;;10.68;2.50;;;17.70;99.90;;;;;;5044597;28;20053;-78
2023/10/05 12:06:58;;;;;;;11.63;2.55;;;17.70;99.90;;;;;;5043408;28;20056;-77
2023/10/05 12:09:32;;;;;;;10.77;2.45;;;17.70;99.90;;;;;;5023306;28;20478;-78
2023/10/05 12:12:03;;;;;;;11.27;2.80;;;17.70;99.90;;;;;;5024534;28;20136;-77
2023/10/05 12:14:29;;;;;;;11.48;2.20;;;17.50;99.90;;;;;;5026474;28;20060;-78
2023/10/05 12:16:56;;;;;;;10.65;2.67;;;17.50;99.90;;;;;;5025665;28;20583;-78
2023/10/05 12:19:28;;;;;;;14.15;2.80;;;17.40;99.90;;;;;;5041169;28;20481;-78
2023/10/05 12:21:55;;;;;;;12.30;2.83;;;17.40;99.90;;;;;;5023361;28;20060;-78
2023/10/05 12:24:22;;;;;;;13.02;2.55;;;17.30;99.90;;;;;;5049447;28;20052;-78
2023/10/05 12:26:48;;;;;;;17.67;3.08;;;17.30;99.90;;;;;;5022959;28;20056;-78
2023/10/05 12:29:14;;;;;;;9.13;2.05;;;17.30;99.90;;;;;;5042323;28;20092;-81
2023/10/05 12:31:47;;;;;;;9.85;1.83;;;17.30;99.90;;;;;;5042313;28;20100;-80
2023/10/05 12:34:16;;;;;;;7.05;1.90;;;17.30;99.90;;;;;;5043168;28;20451;-80
2023/10/05 12:36:49;;;;;;;13.70;2.50;;;17.10;99.90;;;;;;5041123;28;20036;-80
2023/10/05 12:39:18;;;;;;;8.32;1.95;;;17.10;99.90;;;;;;5022757;28;20128;-78
2023/10/05 12:41:46;;;;;;;10.52;2.45;;;17.10;99.90;;;;;;5043892;28;20036;-79
2023/10/05 12:44:13;;;;;;;9.48;2.20;;;17.00;99.90;;;;;;5025679;28;20064;-78
2023/10/05 12:46:45;;;;;;;8.00;2.33;;;16.90;99.90;;;;;;5022932;28;20128;-79
2023/10/05 12:49:14;;;;;;;12.15;1.90;;;16.90;99.90;;;;;;5040816;28;20049;-78
2023/10/05 12:51:40;;;;;;;8.80;1.80;;;16.80;99.90;;;;;;5025253;28;20798;-78
2023/10/05 12:54:18;;;;;;;7.90;2.10;;;16.70;99.90;;;;;;5026103;28;20047;-78
2023/10/05 12:56:49;;;;;;;11.95;2.63;;;16.80;99.90;;;;;;5024216;28;20047;-78
2023/10/05 12:59:16;;;;;;;13.98;2.03;;;16.80;99.90;;;;;;5021948;28;20041;-79
2023/10/05 13:01:42;;;;;;;8.35;2.00;;;17.00;99.90;;;;;;5023913;28;20044;-80
2023/10/05 13:04:15;;;;;;;14.45;2.58;;;17.20;99.90;;;;;;5025882;28;20041;-80
2023/10/05 13:06:41;;;;;;;12.63;3.35;;;17.40;99.90;;;;;;5043537;28;20047;-80
2023/10/05 13:09:11;;;;;;;12.13;2.42;;;17.80;99.90;;;;;;5040736;28;20079;-80
2023/10/05 13:11:44;;;;;;;13.90;2.67;;;17.90;99.90;;;;;;5040761;28;20111;-78
2023/10/05 13:14:14;;;;;;;11.85;2.97;;;18.10;99.90;;;;;;5043435;28;20055;-79
2023/10/05 13:16:41;;;;;;;14.90;2.42;;;18.80;99.90;;;;;;5025895;28;20057;-79
2023/10/05 13:19:10;;;;;;;12.77;2.08;;;18.70;99.90;;;;;;5023826;28;20041;-79
2023/10/05 13:21:44;;;;;;;12.27;2.72;;;18.70;99.90;;;;;;5040480;28;20048;-79
2023/10/05 13:24:11;;;;;;;;;;;19.00;99.90;;;;;;5042419;28;20045;-80